Time;durP1;ratioP1;P1;durP2;ratioP2;P2;SDS_P1;SDS_P2;PMS_P1;PMS_P2;Temp;Humidity;BMP_temperature;BMP_pressure;BME280_temperature;BME280_humidity;BME280_pressure;Samples;Min_cycle;Max_cycle;Signal;HPM_P1;HPM_P2
2022/05/02 00:02:23;;;;;;;3.80;3.40;;;7.20;99.90;;;;;;5000693;28;20188;-65
2022/05/02 00:04:49;;;;;;;5.47;3.38;;;7.10;99.90;;;;;;5000859;28;20076;-65
2022/05/02 00:07:15;;;;;;;6.68;4.30;;;7.20;99.90;;;;;;5000108;28;20052;-65
2022/05/02 00:09:41;;;;;;;4.60;3.65;;;7.10;99.90;;;;;;5007498;28;20049;-65
2022/05/02 00:12:07;;;;;;;6.18;4.03;;;7.00;99.90;;;;;;5011971;28;20038;-65
2022/05/02 00:14:33;;;;;;;6.38;3.90;;;7.10;99.90;;;;;;5005368;28;20041;-65
2022/05/02 00:16:58;;;;;;;5.13;4.32;;;7.10;99.90;;;;;;5006029;28;20054;-66
2022/05/02 00:19:24;;;;;;;6.22;4.43;;;7.70;99.90;;;;;;5003131;28;20057;-65
2022/05/02 00:21:50;;;;;;;6.20;3.97;;;7.10;99.90;;;;;;5004963;28;20546;-65
2022/05/02 00:24:16;;;;;;;6.93;5.30;;;7.20;99.90;;;;;;5008917;28;20084;-65
2022/05/02 00:26:41;;;;;;;5.32;4.25;;;7.20;99.90;;;;;;5012716;28;20140;-65
2022/05/02 00:29:07;;;;;;;6.70;4.60;;;7.10;99.90;;;;;;5005195;28;20041;-65
2022/05/02 00:31:33;;;;;;;4.88;3.65;;;7.10;99.90;;;;;;5003346;28;20053;-65
2022/05/02 00:33:59;;;;;;;6.80;4.32;;;7.00;99.90;;;;;;5004488;28;20079;-65
2022/05/02 00:36:25;;;;;;;4.88;4.25;;;7.00;99.90;;;;;;5005044;28;20046;-66
2022/05/02 00:38:51;;;;;;;6.97;3.42;;;7.00;99.90;;;;;;5005513;28;20034;-65
2022/05/02 00:41:18;;;;;;;6.72;4.38;;;7.00;99.90;;;;;;5000219;28;20124;-65
2022/05/02 00:43:44;;;;;;;5.57;3.03;;;7.00;99.90;;;;;;5003798;28;20681;-65
2022/05/02 00:46:19;;;;;;;6.45;4.88;;;6.90;99.90;;;;;;5005153;28;20049;-65
2022/05/02 00:48:46;;;;;;;5.32;4.80;;;7.00;99.90;;;;;;5004654;28;20080;-65
2022/05/02 00:51:12;;;;;;;6.22;3.63;;;7.00;99.90;;;;;;5005100;28;20053;-65
2022/05/02 00:53:39;;;;;;;6.45;4.75;;;7.00;99.90;;;;;;5004358;28;20045;-67
2022/05/02 00:56:06;;;;;;;7.97;4.50;;;7.10;99.90;;;;;;5003298;28;20092;-67
2022/05/02 00:58:35;;;;;;;8.40;5.40;;;7.00;99.90;;;;;;5004323;28;20080;-67
2022/05/02 01:01:02;;;;;;;5.25;4.13;;;7.00;99.90;;;;;;5008387;28;20050;-67
2022/05/02 01:03:28;;;;;;;5.20;3.60;;;6.90;99.90;;;;;;5010732;28;20076;-67
2022/05/02 01:08:38;;;;;;;6.05;4.38;;;6.90;99.90;;;;;;5003903;28;20128;-67
2022/05/02 01:11:04;;;;;;;6.85;5.43;;;6.90;99.90;;;;;;5003911;28;20603;-66
2022/05/02 01:13:37;;;;;;;6.30;5.07;;;6.80;99.90;;;;;;5003208;28;20041;-67
2022/05/02 01:16:23;;;;;;;5.43;4.93;;;6.80;99.90;;;;;;5002481;28;20045;-67
2022/05/02 01:18:51;;;;;;;4.85;4.15;;;6.80;99.90;;;;;;5001882;28;20058;-67
2022/05/02 01:21:19;;;;;;;6.70;4.60;;;6.80;99.90;;;;;;5002094;28;20095;-67
2022/05/02 01:23:47;;;;;;;5.75;4.13;;;6.80;99.90;;;;;;4999652;28;20404;-67
2022/05/02 01:26:13;;;;;;;5.93;4.78;;;6.80;99.90;;;;;;5003152;28;20041;-67
2022/05/02 01:28:42;;;;;;;7.50;5.53;;;6.70;99.90;;;;;;5003173;28;20033;-67
2022/05/02 01:31:08;;;;;;;9.88;4.40;;;6.70;99.90;;;;;;5011710;28;20826;-67
2022/05/02 01:33:35;;;;;;;8.85;6.25;;;6.70;99.90;;;;;;5009578;28;20052;-64
2022/05/02 01:36:01;;;;;;;7.85;4.82;;;6.60;99.90;;;;;;5004071;28;20049;-64
2022/05/02 01:38:26;;;;;;;7.60;4.05;;;6.70;99.90;;;;;;5000990;28;20386;-64
2022/05/02 01:40:52;;;;;;;7.90;5.38;;;6.70;99.90;;;;;;5002725;28;20487;-64
2022/05/02 01:43:17;;;;;;;6.78;5.35;;;6.70;99.90;;;;;;5000969;28;21004;-64
2022/05/02 01:45:43;;;;;;;9.10;5.60;;;6.70;99.90;;;;;;5003728;28;20413;-64
2022/05/02 01:48:08;;;;;;;5.90;4.63;;;6.60;99.90;;;;;;5014119;28;20484;-64
2022/05/02 01:50:34;;;;;;;7.63;5.25;;;5.70;99.90;;;;;;5002786;28;20450;-65
2022/05/02 01:53:00;;;;;;;7.55;5.50;;;6.50;99.90;;;;;;5002761;28;20045;-66
2022/05/02 01:55:25;;;;;;;5.95;4.85;;;6.50;99.90;;;;;;5008470;28;20136;-66
2022/05/02 01:57:51;;;;;;;5.72;4.95;;;6.40;99.90;;;;;;5014998;28;20042;-66
2022/05/02 02:00:17;;;;;;;6.72;4.43;;;6.40;99.90;;;;;;5002304;28;20100;-66
2022/05/02 02:02:42;;;;;;;8.02;5.05;;;6.40;99.90;;;;;;5001145;28;20045;-66
2022/05/02 02:07:52;;;;;;;5.50;4.63;;;6.30;99.90;;;;;;5015356;28;20894;-66
2022/05/02 02:10:18;;;;;;;6.75;4.85;;;6.20;99.90;;;;;;5004750;28;20102;-66
2022/05/02 02:12:43;;;;;;;5.90;4.70;;;6.20;99.90;;;;;;5000518;28;20033;-66
2022/05/02 02:15:14;;;;;;;9.18;5.57;;;6.10;99.90;;;;;;5002173;28;20132;-66
2022/05/02 02:17:40;;;;;;;8.25;5.97;;;6.10;99.90;;;;;;5003497;28;20037;-66
2022/05/02 02:20:07;;;;;;;7.10;4.85;;;6.00;99.90;;;;;;5000730;28;20046;-66
2022/05/02 02:22:33;;;;;;;9.48;6.75;;;6.00;99.90;;;;;;5003482;28;20191;-66
2022/05/02 02:24:59;;;;;;;6.88;5.53;;;5.90;99.90;;;;;;5002611;28;20176;-66
2022/05/02 02:27:24;;;;;;;7.90;5.03;;;5.90;99.90;;;;;;5003178;28;20041;-66
2022/05/02 02:29:50;;;;;;;7.50;5.55;;;5.90;99.90;;;;;;5003166;28;20052;-66
2022/05/02 02:32:15;;;;;;;7.28;4.68;;;5.90;99.90;;;;;;5003214;28;20443;-66
2022/05/02 02:34:41;;;;;;;6.82;5.22;;;5.80;99.90;;;;;;5010049;28;20162;-65
2022/05/02 02:37:06;;;;;;;8.18;4.68;;;5.80;99.90;;;;;;5014778;28;20070;-65
2022/05/02 02:39:32;;;;;;;6.90;5.32;;;5.80;99.90;;;;;;5002299;28;20127;-66
2022/05/02 02:41:58;;;;;;;8.25;5.78;;;5.70;99.90;;;;;;5000933;28;20045;-66
2022/05/02 02:44:24;;;;;;;9.00;5.85;;;5.70;99.90;;;;;;5002473;28;20092;-66
2022/05/02 02:46:49;;;;;;;6.72;5.20;;;5.70;99.90;;;;;;5002056;28;21971;-65
2022/05/02 02:49:15;;;;;;;9.75;5.45;;;5.70;99.90;;;;;;5009508;28;20449;-66
2022/05/02 02:51:41;;;;;;;8.60;6.00;;;5.70;99.90;;;;;;5012813;28;20037;-66
2022/05/02 02:54:06;;;;;;;6.43;4.50;;;5.80;99.90;;;;;;5003450;28;20226;-66
2022/05/02 02:56:32;;;;;;;6.40;5.15;;;5.80;99.90;;;;;;5002541;28;20048;-66
2022/05/02 02:58:57;;;;;;;6.75;5.28;;;5.70;99.90;;;;;;5002949;28;20133;-66
2022/05/02 03:01:23;;;;;;;9.43;5.50;;;5.70;99.90;;;;;;5006104;28;20145;-66
2022/05/02 03:03:48;;;;;;;6.88;5.38;;;5.60;99.90;;;;;;5006471;28;20108;-66
2022/05/02 03:06:14;;;;;;;8.05;5.65;;;5.70;99.90;;;;;;5012910;28;20055;-65
2022/05/02 03:08:40;;;;;;;7.40;5.18;;;5.60;99.90;;;;;;5002513;28;20041;-66
2022/05/02 03:11:06;;;;;;;7.03;5.28;;;5.60;99.90;;;;;;5002680;28;20138;-66
2022/05/02 03:13:33;;;;;;;6.22;4.63;;;5.50;99.90;;;;;;5002965;28;20048;-66
2022/05/02 03:15:59;;;;;;;6.57;4.43;;;5.50;99.90;;;;;;5001708;28;20073;-66
2022/05/02 03:18:24;;;;;;;7.38;5.35;;;4.70;99.90;;;;;;5002673;28;21001;-66
2022/05/02 03:20:50;;;;;;;7.63;5.30;;;5.50;99.90;;;;;;5008069;28;20587;-66
2022/05/02 03:23:16;;;;;;;5.30;4.72;;;5.60;99.90;;;;;;5013226;28;20775;-66
2022/05/02 03:25:41;;;;;;;7.90;5.35;;;5.60;99.90;;;;;;5002948;28;20080;-66
2022/05/02 03:28:07;;;;;;;7.63;5.25;;;5.00;99.90;;;;;;5002242;28;20049;-66
2022/05/02 03:30:33;;;;;;;6.97;5.60;;;5.70;99.90;;;;;;5001828;28;20611;-66
2022/05/02 03:32:58;;;;;;;6.75;5.18;;;5.70;99.90;;;;;;5001653;28;20148;-65
2022/05/02 03:35:25;;;;;;;8.05;5.38;;;5.60;99.90;;;;;;5002929;28;20038;-66
2022/05/02 03:37:51;;;;;;;6.70;5.30;;;5.70;99.90;;;;;;5014213;28;20663;-66
2022/05/02 03:40:16;;;;;;;7.57;5.53;;;5.70;99.90;;;;;;5009556;28;20041;-66
2022/05/02 03:42:42;;;;;;;7.00;5.75;;;5.70;99.90;;;;;;5002502;28;20048;-65
2022/05/02 03:45:08;;;;;;;6.45;5.60;;;5.70;99.90;;;;;;5003001;28;20505;-66
2022/05/02 03:47:34;;;;;;;8.05;5.28;;;5.70;99.90;;;;;;5012249;28;20858;-65
2022/05/02 03:50:00;;;;;;;8.10;5.72;;;5.70;99.90;;;;;;5002118;28;20052;-66
2022/05/02 03:52:25;;;;;;;6.38;4.97;;;5.80;99.90;;;;;;5000079;28;20075;-66
2022/05/02 03:54:51;;;;;;;9.57;6.30;;;5.70;99.90;;;;;;5002203;28;20132;-66
2022/05/02 03:57:17;;;;;;;6.50;5.40;;;5.70;99.90;;;;;;5001435;28;20095;-66
2022/05/02 03:59:42;;;;;;;7.85;5.97;;;5.70;99.90;;;;;;5001137;28;20390;-66
2022/05/02 04:02:08;;;;;;;7.40;4.68;;;5.70;99.90;;;;;;5002164;28;20045;-66
2022/05/02 04:04:34;;;;;;;8.32;5.90;;;5.60;99.90;;;;;;4999706;28;20553;-66
2022/05/02 04:06:59;;;;;;;10.10;5.00;;;5.60;99.90;;;;;;5001209;28;20049;-65
2022/05/02 04:09:25;;;;;;;7.82;5.50;;;5.60;99.90;;;;;;5004218;28;20106;-66
2022/05/02 04:11:50;;;;;;;6.85;5.38;;;5.60;99.90;;;;;;5015073;28;20049;-66
2022/05/02 04:14:16;;;;;;;7.22;6.25;;;5.70;99.90;;;;;;5002885;28;20050;-67
2022/05/02 04:16:41;;;;;;;8.60;6.13;;;5.60;99.90;;;;;;5003474;28;20044;-66
2022/05/02 04:19:07;;;;;;;8.05;5.47;;;5.70;99.90;;;;;;5003400;28;20089;-66
2022/05/02 04:21:33;;;;;;;6.22;5.57;;;6.60;99.90;;;;;;5000958;28;20173;-66
2022/05/02 04:23:59;;;;;;;8.70;6.10;;;5.70;99.90;;;;;;5002575;28;20045;-66
2022/05/02 04:26:24;;;;;;;7.53;5.90;;;5.70;99.90;;;;;;5001509;28;20084;-66
2022/05/02 04:28:50;;;;;;;8.23;5.88;;;5.70;99.90;;;;;;5002287;28;20578;-66
2022/05/02 04:31:15;;;;;;;8.13;5.32;;;5.70;99.90;;;;;;5003785;28;20052;-66
2022/05/02 04:33:41;;;;;;;10.45;6.47;;;5.50;99.90;;;;;;5009924;28;20049;-66
2022/05/02 04:36:07;;;;;;;9.90;5.80;;;5.60;99.90;;;;;;5008995;28;20050;-66
2022/05/02 04:38:33;;;;;;;7.57;5.90;;;5.80;99.90;;;;;;5000903;28;20037;-66
2022/05/02 04:40:59;;;;;;;7.80;6.10;;;5.70;99.90;;;;;;5000834;28;20077;-66
2022/05/02 04:43:27;;;;;;;9.07;6.50;;;5.70;99.90;;;;;;5001105;28;20187;-66
2022/05/02 04:45:53;;;;;;;9.02;7.40;;;5.70;99.90;;;;;;5000456;28;20045;-66
2022/05/02 04:48:18;;;;;;;11.85;7.30;;;5.70;99.90;;;;;;4999463;28;20050;-66
2022/05/02 04:50:44;;;;;;;8.50;5.60;;;5.70;99.90;;;;;;5000541;28;20729;-66
2022/05/02 04:53:10;;;;;;;12.05;6.75;;;5.70;99.90;;;;;;4999557;28;20049;-66
2022/05/02 04:55:35;;;;;;;11.55;6.70;;;5.70;99.90;;;;;;5001490;28;20377;-67
2022/05/02 04:58:01;;;;;;;10.45;6.60;;;5.90;99.90;;;;;;5002180;28;20049;-66
2022/05/02 05:00:26;;;;;;;9.40;6.30;;;5.90;99.90;;;;;;5002565;28;20045;-67
2022/05/02 05:02:52;;;;;;;8.45;6.32;;;6.00;99.90;;;;;;5005445;28;20047;-66
2022/05/02 05:05:18;;;;;;;9.65;7.13;;;6.10;99.90;;;;;;5000609;28;20061;-66
2022/05/02 05:07:43;;;;;;;10.23;6.55;;;6.10;99.90;;;;;;5002133;28;20237;-66
2022/05/02 05:10:09;;;;;;;7.80;6.43;;;6.20;99.90;;;;;;5012088;28;20099;-66
2022/05/02 05:12:46;;;;;;;10.27;6.43;;;6.30;99.90;;;;;;5004971;28;20503;-66
2022/05/02 05:18:29;;;;;;;9.65;6.05;;;6.40;99.90;;;;;;5002065;28;20057;-65
2022/05/02 05:21:08;;;;;;;7.85;6.15;;;6.50;99.90;;;;;;5000415;28;20753;-66
2022/05/02 05:24:12;;;;;;;9.55;7.00;;;6.60;99.90;;;;;;4999428;28;20052;-66
2022/05/02 05:27:23;;;;;;;11.25;8.27;;;6.70;99.90;;;;;;5010196;28;20057;-66
2022/05/02 05:30:02;;;;;;;12.35;6.40;;;6.80;99.90;;;;;;4997489;28;20072;-64
2022/05/02 05:32:35;;;;;;;12.20;7.68;;;6.80;99.90;;;;;;4999660;28;20718;-64
2022/05/02 05:35:09;;;;;;;11.23;8.25;;;6.90;99.90;;;;;;5005247;28;20290;-64
2022/05/02 05:37:45;;;;;;;9.43;6.40;;;7.00;99.90;;;;;;4998630;28;20053;-64
2022/05/02 05:40:28;;;;;;;9.07;6.70;;;7.10;99.90;;;;;;4998994;28;20050;-64
2022/05/02 05:43:08;;;;;;;11.88;8.15;;;7.10;99.90;;;;;;4999643;28;20026;-64
2022/05/02 05:46:11;;;;;;;9.82;7.13;;;7.20;99.90;;;;;;4999178;28;20045;-64
2022/05/02 05:49:02;;;;;;;10.50;6.10;;;7.20;99.90;;;;;;5000302;28;20045;-65
2022/05/02 05:51:34;;;;;;;9.25;8.13;;;7.30;99.90;;;;;;4991646;28;20430;-66
2022/05/02 05:54:37;;;;;;;11.75;7.93;;;7.40;99.90;;;;;;4996623;28;20145;-65
2022/05/02 05:57:35;;;;;;;14.87;8.60;;;7.50;99.90;;;;;;4996439;28;20049;-66
2022/05/02 06:00:09;;;;;;;13.52;9.38;;;7.60;99.90;;;;;;5003062;28;21162;-66
2022/05/02 06:02:49;;;;;;;9.90;7.75;;;7.70;99.90;;;;;;4998372;28;20042;-66
2022/05/02 06:05:15;;;;;;;11.68;8.70;;;7.80;99.90;;;;;;4997264;28;20100;-65
2022/05/02 06:07:42;;;;;;;11.75;9.30;;;7.90;99.90;;;;;;4997057;28;20045;-66
2022/05/02 06:10:09;;;;;;;14.65;9.18;;;7.90;99.90;;;;;;4995825;28;20057;-67
2022/05/02 06:12:36;;;;;;;18.30;8.90;;;8.00;99.90;;;;;;4998717;28;20635;-67
2022/05/02 06:20:39;;;;;;;14.93;9.13;;;8.30;99.90;;;;;;4998050;28;20824;-66
2022/05/02 06:23:09;;;;;;;10.18;8.10;;;8.50;99.90;;;;;;4998584;28;20045;-66
2022/05/02 06:25:36;;;;;;;12.30;8.65;;;8.60;99.90;;;;;;4999677;28;20053;-66
2022/05/02 06:28:03;;;;;;;11.05;7.95;;;8.70;99.90;;;;;;5001287;28;20046;-66
2022/05/02 06:30:30;;;;;;;12.10;9.23;;;8.90;99.90;;;;;;5004486;28;20084;-66
2022/05/02 06:32:59;;;;;;;10.02;8.52;;;9.10;99.90;;;;;;5008974;28;20056;-66
2022/05/02 06:35:35;;;;;;;11.13;8.85;;;9.20;99.90;;;;;;5004617;28;20835;-66
2022/05/02 06:38:13;;;;;;;12.45;8.02;;;9.40;99.90;;;;;;4999420;28;20797;-66
2022/05/02 06:41:16;;;;;;;11.57;8.50;;;9.60;99.90;;;;;;4998567;28;20112;-67
2022/05/02 06:44:08;;;;;;;13.90;8.63;;;9.60;99.90;;;;;;4998706;28;20049;-67
2022/05/02 06:46:40;;;;;;;12.40;8.30;;;9.90;99.90;;;;;;4996834;28;20046;-67
2022/05/02 06:49:12;;;;;;;9.85;7.10;;;10.50;99.90;;;;;;5003368;28;20065;-67
2022/05/02 06:51:45;;;;;;;9.93;7.13;;;11.60;99.90;;;;;;5005567;28;20038;-66
2022/05/02 06:54:11;;;;;;;;;;;12.70;99.90;;;;;;5007130;28;20046;-63
2022/05/02 06:56:43;;;;;;;10.80;8.23;;;13.80;99.90;;;;;;4656881;28;10000136;-66
2022/05/02 06:59:17;;;;;;;9.47;7.23;;;14.50;99.90;;;;;;4305222;28;10000745;-66
2022/05/02 07:01:50;;;;;;;9.88;6.43;;;15.40;99.90;;;;;;4995546;28;20666;-66
2022/05/02 07:04:23;;;;;;;7.68;6.88;;;15.70;99.90;;;;;;4993105;28;20080;-63
2022/05/02 07:07:10;;;;;;;;;;;16.30;99.90;;;;;;4999092;28;20057;-63
2022/05/02 07:09:40;;;;;;;7.82;5.88;;;15.50;94.40;;;;;;4994148;28;20435;-63
2022/05/02 07:12:16;;;;;;;11.18;7.50;;;16.50;99.90;;;;;;5000266;28;20600;-62
2022/05/02 07:15:20;;;;;;;8.00;6.05;;;17.20;98.70;;;;;;4994677;28;20076;-63
2022/05/02 07:18:05;;;;;;;6.85;5.85;;;17.70;97.40;;;;;;4995371;28;20540;-63
2022/05/02 07:20:50;;;;;;;8.02;6.25;;;18.30;99.70;;;;;;4995277;28;20151;-64
2022/05/02 07:23:31;;;;;;;10.18;6.68;;;18.20;92.50;;;;;;4995276;28;20123;-64
2022/05/02 07:26:06;;;;;;;6.72;5.57;;;18.20;99.10;;;;;;4993260;28;20041;-64
2022/05/02 07:28:44;;;;;;;7.57;4.68;;;18.80;97.40;;;;;;4991097;28;20037;-66
2022/05/02 07:31:12;;;;;;;6.45;4.47;;;19.60;96.10;;;;;;4994498;28;20060;-66
2022/05/02 07:33:39;;;;;;;4.82;4.43;;;20.00;96.00;;;;;;4992388;28;20080;-66
2022/05/02 07:36:05;;;;;;;4.25;3.90;;;20.10;94.30;;;;;;4992696;28;20053;-66
2022/05/02 07:38:36;;;;;;;4.97;4.47;;;19.80;92.80;;;;;;4993485;28;20115;-66
2022/05/02 07:41:27;;;;;;;4.97;4.15;;;20.30;93.20;;;;;;4992984;28;20108;-66
2022/05/02 07:44:07;;;;;;;4.35;3.67;;;20.60;85.20;;;;;;4995172;28;20574;-66
2022/05/02 07:46:35;;;;;;;4.55;4.03;;;21.00;91.30;;;;;;4993274;28;20049;-66
2022/05/02 07:49:03;;;;;;;4.93;4.20;;;21.50;90.70;;;;;;4994655;28;20048;-67
2022/05/02 07:51:30;;;;;;;6.70;4.57;;;22.00;88.90;;;;;;4994360;28;20057;-66
2022/05/02 07:53:58;;;;;;;5.18;4.25;;;20.90;86.80;;;;;;4992881;28;20125;-67
2022/05/02 07:56:26;;;;;;;8.38;4.88;;;20.30;84.40;;;;;;4993165;28;20044;-66
2022/05/02 07:58:57;;;;;;;5.75;4.28;;;20.40;88.00;;;;;;4992887;28;20079;-65
2022/05/02 08:01:24;;;;;;;4.78;4.38;;;20.60;88.90;;;;;;4993902;28;20836;-66
2022/05/02 08:03:51;;;;;;;5.07;4.55;;;20.80;86.50;;;;;;4994658;28;20090;-66
2022/05/02 08:06:55;;;;;;;5.80;4.32;;;21.00;86.80;;;;;;4997783;28;20045;-66
2022/05/02 08:09:51;;;;;;;7.40;4.55;;;21.30;81.80;;;;;;4995204;28;20049;-66
2022/05/02 08:12:54;;;;;;;6.55;4.10;;;22.10;79.40;;;;;;4992806;28;20059;-66
2022/05/02 08:15:37;;;;;;;8.00;3.95;;;22.40;79.40;;;;;;4992871;28;20941;-66
2022/05/02 08:18:11;;;;;;;5.30;4.80;;;22.30;72.30;;;;;;4993998;28;20459;-66
2022/05/02 08:20:51;;;;;;;6.40;5.30;;;21.70;75.70;;;;;;4678759;28;10000747;-66
2022/05/02 08:30:01;;;;;;;5.40;4.13;;;22.30;75.00;;;;;;4985384;28;20140;-66
2022/05/02 08:32:56;;;;;;;5.72;4.45;;;22.10;70.10;;;;;;4999381;28;20069;-66
2022/05/02 08:35:59;;;;;;;6.13;4.25;;;21.80;67.60;;;;;;5006095;28;20050;-67
2022/05/02 08:38:46;;;;;;;7.90;4.88;;;21.90;69.40;;;;;;5006098;28;20045;-67
2022/05/02 08:41:34;;;;;;;5.80;4.90;;;21.90;75.40;;;;;;5013256;28;20165;-66
2022/05/02 08:44:33;;;;;;;7.65;4.53;;;22.20;74.50;;;;;;4995229;28;20505;-66
2022/05/02 08:47:22;;;;;;;6.25;4.57;;;22.00;67.60;;;;;;5013730;28;20056;-66
2022/05/02 08:50:25;;;;;;;7.63;4.65;;;21.50;71.30;;;;;;5017391;28;20081;-66
2022/05/02 08:53:02;;;;;;;5.50;4.43;;;22.00;69.40;;;;;;5017178;28;20183;-66
2022/05/02 08:56:04;;;;;;;5.65;4.63;;;21.70;73.30;;;;;;5017646;28;20599;-67
2022/05/02 08:58:58;;;;;;;6.72;5.07;;;21.90;71.70;;;;;;5017878;28;20041;-66
2022/05/02 09:01:49;;;;;;;6.53;4.40;;;22.40;67.10;;;;;;5014260;28;20068;-66
2022/05/02 09:04:40;;;;;;;5.07;4.57;;;22.20;65.30;;;;;;5013697;28;20084;-66
2022/05/02 09:07:18;;;;;;;9.20;5.65;;;21.70;65.90;;;;;;5001989;28;20280;-66
2022/05/02 09:10:06;;;;;;;5.20;4.07;;;21.90;66.60;;;;;;4996000;28;20050;-66
2022/05/02 09:12:59;;;;;;;6.35;5.68;;;22.30;68.60;;;;;;5006957;28;20073;-66
2022/05/02 09:15:57;;;;;;;11.35;4.60;;;22.60;66.30;;;;;;5004007;28;20529;-66
2022/05/02 09:18:54;;;;;;;5.30;4.50;;;22.20;65.50;;;;;;5005927;28;20038;-66
2022/05/02 09:21:33;;;;;;;6.05;4.47;;;22.60;64.30;;;;;;5005237;28;20167;-66
2022/05/02 09:24:35;;;;;;;8.45;4.45;;;23.10;64.70;;;;;;5019095;28;20057;-66
2022/05/02 09:27:22;;;;;;;4.80;4.23;;;22.00;63.50;;;;;;5027932;28;20552;-66
2022/05/02 09:30:21;;;;;;;7.03;4.53;;;20.50;67.20;;;;;;5005199;28;20057;-66
2022/05/02 09:32:48;;;;;;;6.15;4.13;;;20.30;66.50;;;;;;5005025;28;20096;-66
2022/05/02 09:35:18;;;;;;;6.82;4.70;;;21.00;69.40;;;;;;5004193;28;20077;-65
2022/05/02 09:37:58;;;;;;;5.78;4.40;;;21.70;68.40;;;;;;5011698;28;20143;-66
2022/05/02 09:40:35;;;;;;;5.63;4.55;;;22.70;66.60;;;;;;5022296;28;20046;-66
2022/05/02 09:43:20;;;;;;;5.32;4.68;;;22.60;64.70;;;;;;5006100;28;20118;-66
2022/05/02 09:51:41;;;;;;;9.73;5.15;;;21.50;61.30;;;;;;5004115;28;20136;-66
2022/05/02 09:57:33;;;;;;;5.88;4.53;;;19.60;66.10;;;;;;4988294;28;20064;-66
2022/05/02 10:02:49;;;;;;;6.57;4.78;;;20.30;65.90;;;;;;5017512;28;20060;-66
2022/05/02 10:05:29;;;;;;;6.75;4.88;;;20.90;67.10;;;;;;5013619;28;20114;-65
2022/05/02 10:08:04;;;;;;;5.95;4.43;;;20.70;64.40;;;;;;5005784;28;20063;-66
2022/05/02 10:10:39;;;;;;;5.45;4.50;;;21.20;64.00;;;;;;5004122;28;20156;-66
2022/05/02 10:13:14;;;;;;;5.53;4.05;;;21.50;62.00;;;;;;5004894;28;20038;-66
2022/05/02 10:16:22;;;;;;;4.07;3.63;;;22.00;64.40;;;;;;5003848;28;20061;-66
2022/05/02 10:19:17;;;;;;;5.18;4.68;;;22.80;60.40;;;;;;5002449;28;20049;-66
2022/05/02 10:22:01;;;;;;;5.38;4.05;;;23.30;60.40;;;;;;4986158;28;20062;-66
2022/05/02 10:24:59;;;;;;;6.38;4.50;;;23.60;62.70;;;;;;5001706;28;20897;-66
2022/05/02 10:27:36;;;;;;;6.53;4.85;;;23.40;58.20;;;;;;5005353;28;20095;-65
2022/05/02 10:30:07;;;;;;;5.55;4.68;;;22.60;62.00;;;;;;5010959;28;20049;-66
2022/05/02 10:32:49;;;;;;;5.82;5.07;;;21.90;61.70;;;;;;5003479;28;20041;-66
2022/05/02 10:35:17;;;;;;;7.28;4.63;;;21.70;61.60;;;;;;5003422;28;20152;-66
2022/05/02 10:37:49;;;;;;;5.25;4.50;;;20.80;62.70;;;;;;5021101;28;20047;-66
2022/05/02 10:40:23;;;;;;;7.32;4.88;;;20.80;63.90;;;;;;5014780;28;20165;-66
2022/05/02 10:42:51;;;;;;;5.88;4.47;;;20.30;61.10;;;;;;5003484;28;20060;-65
2022/05/02 10:45:17;;;;;;;6.25;5.05;;;20.30;63.40;;;;;;5000374;28;20042;-65
2022/05/02 10:47:56;;;;;;;5.57;4.30;;;20.90;63.00;;;;;;5001654;28;20085;-65
2022/05/02 10:50:26;;;;;;;4.80;3.97;;;21.30;60.70;;;;;;5001595;28;20104;-65
2022/05/02 10:53:12;;;;;;;6.75;4.57;;;21.40;61.20;;;;;;4999622;28;20110;-65
2022/05/02 10:56:15;;;;;;;5.75;4.30;;;20.70;61.60;;;;;;5000747;28;20057;-65
2022/05/02 10:58:44;;;;;;;5.88;4.68;;;20.10;61.10;;;;;;5000179;28;20658;-65
2022/05/02 11:01:56;;;;;;;4.50;3.53;;;19.60;63.20;;;;;;4992032;28;20102;-65
2022/05/02 11:04:55;;;;;;;5.90;5.35;;;19.70;62.40;;;;;;4993965;28;20057;-64
2022/05/02 11:07:35;;;;;;;5.45;4.13;;;19.50;61.50;;;;;;4998147;28;20100;-64
2022/05/02 11:10:07;;;;;;;6.82;4.60;;;19.70;63.60;;;;;;4997435;28;20056;-65
2022/05/02 11:12:41;;;;;;;6.23;4.27;;;19.60;61.90;;;;;;4997222;28;20238;-65
2022/05/02 11:15:13;;;;;;;5.72;5.07;;;18.90;61.30;;;;;;4994106;28;20933;-65
2022/05/02 11:17:57;;;;;;;6.03;5.05;;;18.70;61.80;;;;;;5001210;28;20815;-65
2022/05/02 11:20:41;;;;;;;5.78;5.20;;;18.30;62.30;;;;;;4994061;28;20053;-65
2022/05/02 11:23:25;;;;;;;5.40;4.00;;;18.40;61.90;;;;;;4996152;28;20640;-65
2022/05/02 11:26:09;;;;;;;6.43;4.10;;;18.80;60.80;;;;;;4996235;28;21025;-65
2022/05/02 11:28:38;;;;;;;4.88;4.07;;;19.00;60.70;;;;;;4994574;28;20050;-65
2022/05/02 11:31:28;;;;;;;7.20;4.60;;;19.10;60.80;;;;;;5000614;28;20166;-64
2022/05/02 11:34:09;;;;;;;5.72;4.38;;;19.00;60.40;;;;;;5001560;28;20041;-65
2022/05/02 11:36:44;;;;;;;4.78;3.78;;;19.30;61.30;;;;;;5004969;28;20555;-64
2022/05/02 11:39:19;;;;;;;5.72;5.13;;;19.60;60.50;;;;;;5002271;28;20235;-64
2022/05/02 11:41:47;;;;;;;6.00;4.53;;;19.20;60.50;;;;;;4998176;28;20382;-65
2022/05/02 11:44:14;;;;;;;6.28;4.90;;;19.10;60.00;;;;;;4995388;28;20045;-64
2022/05/02 11:46:55;;;;;;;4.78;3.63;;;19.10;60.00;;;;;;4995025;28;20047;-64
2022/05/02 11:49:40;;;;;;;6.32;4.28;;;19.30;59.40;;;;;;4997823;28;20163;-64
2022/05/02 11:52:11;;;;;;;7.47;4.43;;;18.70;59.30;;;;;;4995067;28;20104;-65
2022/05/02 11:54:39;;;;;;;5.95;3.92;;;18.50;60.20;;;;;;5000850;28;20169;-64
2022/05/02 11:57:17;;;;;;;4.47;3.95;;;18.70;60.20;;;;;;4994823;28;20576;-65
2022/05/02 11:59:43;;;;;;;4.95;3.33;;;18.80;59.40;;;;;;4995692;28;20077;-64
2022/05/02 12:02:24;;;;;;;4.93;3.92;;;18.90;60.30;;;;;;4998788;28;20160;-64
2022/05/02 12:04:55;;;;;;;4.13;3.33;;;18.80;59.90;;;;;;4996044;28;20136;-65
2022/05/02 12:07:34;;;;;;;3.65;3.22;;;18.60;58.80;;;;;;5003087;28;22076;-64
2022/05/02 12:10:08;;;;;;;3.58;3.22;;;18.30;58.60;;;;;;4999864;28;20486;-64
2022/05/02 12:12:34;;;;;;;3.78;3.47;;;18.10;58.80;;;;;;5000460;28;20064;-65
2022/05/02 12:15:08;;;;;;;4.57;3.65;;;18.30;58.60;;;;;;5003779;28;20053;-64
2022/05/02 12:17:56;;;;;;;4.75;3.60;;;18.50;58.70;;;;;;5012750;28;20045;-64
2022/05/02 12:20:42;;;;;;;3.80;3.20;;;18.30;59.30;;;;;;5002246;28;20053;-64
2022/05/02 12:23:18;;;;;;;5.10;4.60;;;18.30;59.40;;;;;;5003456;28;20056;-63
2022/05/02 12:25:54;;;;;;;7.32;4.85;;;17.90;59.90;;;;;;5001343;28;20858;-64
2022/05/02 12:28:38;;;;;;;6.13;4.40;;;18.00;61.20;;;;;;5028099;28;20045;-64
2022/05/02 12:31:13;;;;;;;8.10;4.97;;;18.10;61.30;;;;;;5007782;28;20045;-64
2022/05/02 12:33:40;;;;;;;4.97;4.22;;;17.70;61.70;;;;;;5004347;28;20110;-64
2022/05/02 12:36:17;;;;;;;4.28;3.88;;;17.70;62.10;;;;;;5001856;28;20467;-64
2022/05/02 12:38:54;;;;;;;7.57;4.07;;;17.90;61.60;;;;;;5003054;28;20064;-65
2022/05/02 12:41:24;;;;;;;7.88;4.47;;;18.10;61.10;;;;;;5004072;28;20041;-64
2022/05/02 12:43:53;;;;;;;6.63;4.20;;;17.90;60.10;;;;;;5016594;28;20084;-64
2022/05/02 12:46:23;;;;;;;5.15;4.15;;;17.80;60.40;;;;;;5034321;28;20063;-64
2022/05/02 12:49:01;;;;;;;4.60;3.70;;;17.90;61.40;;;;;;5004139;28;20356;-64
2022/05/02 12:51:28;;;;;;;5.70;3.53;;;17.90;60.50;;;;;;5003614;28;20045;-64
2022/05/02 12:54:13;;;;;;;6.00;3.75;;;18.20;60.00;;;;;;5002278;28;20045;-64
2022/05/02 13:02:43;;;;;;;7.28;4.80;;;18.20;61.20;;;;;;5002822;28;20139;-64
2022/05/02 13:05:16;;;;;;;6.50;4.78;;;17.90;61.60;;;;;;5005499;28;20092;-64
2022/05/02 13:07:49;;;;;;;;;;;17.90;61.30;;;;;;5002970;28;20045;-65
2022/05/02 13:10:23;;;;;;;4.93;4.43;;;17.80;63.10;;;;;;5007495;28;20356;-65
2022/05/02 13:13:02;;;;;;;8.57;4.05;;;17.70;62.00;;;;;;4997878;28;20061;-65
2022/05/02 13:15:39;;;;;;;7.38;4.32;;;17.90;62.10;;;;;;4999610;28;20202;-64
2022/05/02 13:18:07;;;;;;;5.78;3.83;;;18.00;62.00;;;;;;5002270;28;20041;-64
2022/05/02 13:20:33;;;;;;;5.63;3.88;;;17.70;61.70;;;;;;5015492;28;20051;-65
2022/05/02 13:23:00;;;;;;;5.60;4.18;;;18.00;62.10;;;;;;5025753;28;20049;-65
2022/05/02 13:26:26;;;;;;;7.95;4.90;;;17.90;61.90;;;;;;4999496;28;20064;-64
2022/05/02 13:28:58;;;;;;;5.80;3.35;;;17.90;63.80;;;;;;4960114;28;20768;-64
2022/05/02 13:31:47;;;;;;;7.55;3.70;;;17.70;62.00;;;;;;4961132;28;20872;-64
2022/05/02 13:34:33;;;;;;;8.63;4.13;;;17.90;63.70;;;;;;4993972;28;20049;-65
2022/05/02 13:37:10;;;;;;;7.18;3.83;;;17.80;62.30;;;;;;4997803;28;20046;-64
2022/05/02 13:40:09;;;;;;;5.93;4.35;;;17.90;63.10;;;;;;5001608;28;20531;-64
2022/05/02 13:42:36;;;;;;;6.03;4.00;;;18.00;63.60;;;;;;5006458;28;20045;-64
2022/05/02 13:45:05;;;;;;;4.15;3.30;;;18.00;64.30;;;;;;5005235;28;20084;-64
2022/05/02 13:47:51;;;;;;;4.78;4.10;;;18.10;65.00;;;;;;5001592;28;20445;-65
2022/05/02 13:50:22;;;;;;;6.05;3.90;;;17.70;64.70;;;;;;5001042;28;20694;-64
2022/05/02 13:53:03;;;;;;;4.18;3.28;;;17.80;65.80;;;;;;5001819;28;20134;-64
2022/05/02 13:55:38;;;;;;;7.15;3.83;;;18.20;65.90;;;;;;4998430;28;20459;-64
2022/05/02 13:58:04;;;;;;;5.88;3.50;;;18.10;65.10;;;;;;5000369;28;20049;-64
2022/05/02 14:03:48;;;;;;;3.30;3.00;;;18.00;63.60;;;;;;4996394;28;20057;-64
2022/05/02 14:06:19;;;;;;;4.00;3.00;;;18.30;64.90;;;;;;4997249;28;20080;-64
2022/05/02 14:08:44;;;;;;;8.50;6.03;;;18.20;66.50;;;;;;4997718;28;20859;-64